Time;durP1;ratioP1;P1;durP2;ratioP2;P2;SDS_P1;SDS_P2;PMS_P1;PMS_P2;Temp;Humidity;BMP_temperature;BMP_pressure;BME280_temperature;BME280_humidity;BME280_pressure;Samples;Min_cycle;Max_cycle;Signal;HPM_P1;HPM_P2
2024/01/23 00:01:35;;;;;;;10.93;3.67;;;;;;;10.15;85.03;101812.13;5011890;28;20062;-80
2024/01/23 00:04:01;;;;;;;12.07;3.93;;;;;;;10.13;85.50;101813.81;5011624;28;20664;-81
2024/01/23 00:06:26;;;;;;;11.37;3.47;;;;;;;10.12;85.55;101803.25;4993871;28;20017;-80
2024/01/23 00:08:53;;;;;;;9.13;2.15;;;;;;;10.11;85.35;101796.22;5011554;28;20018;-80
2024/01/23 00:11:18;;;;;;;13.07;2.50;;;;;;;10.10;85.62;101789.16;5011691;28;20457;-82
2024/01/23 00:13:45;;;;;;;13.70;3.20;;;;;;;10.09;85.25;101796.16;5011603;28;20025;-81
2024/01/23 00:16:11;;;;;;;13.23;3.65;;;;;;;10.08;85.51;101796.13;4993953;28;20018;-80
2024/01/23 00:18:37;;;;;;;12.50;3.53;;;;;;;10.06;85.51;101798.72;5011692;28;20044;-80
2024/01/23 00:21:02;;;;;;;10.35;2.90;;;;;;;10.05;85.55;101797.84;4991852;28;20022;-78
2024/01/23 00:23:28;;;;;;;11.40;2.70;;;;;;;10.04;85.39;101809.22;4990988;28;20085;-82
2024/01/23 00:25:55;;;;;;;10.13;3.47;;;;;;;10.03;85.75;101802.19;5000510;28;20125;-81
2024/01/23 00:28:20;;;;;;;10.27;2.67;;;;;;;10.03;85.29;101815.34;4982867;28;20089;-80
2024/01/23 00:30:45;;;;;;;7.47;1.83;;;;;;;10.03;85.34;101814.44;4974286;28;20435;-76
2024/01/23 00:33:11;;;;;;;8.83;2.20;;;;;;;10.01;85.45;101811.81;4991840;28;20117;-79
2024/01/23 00:35:36;;;;;;;9.20;2.80;;;;;;;10.00;85.53;101817.88;4991441;28;20391;-80
2024/01/23 00:38:02;;;;;;;8.93;2.37;;;;;;;9.99;85.43;101816.09;4991650;28;20034;-80
2024/01/23 00:40:27;;;;;;;8.23;1.90;;;;;;;9.98;85.45;101819.59;4998523;28;20117;-79
2024/01/23 00:42:53;;;;;;;6.70;1.47;;;;;;;9.99;85.70;101812.59;5009011;28;20435;-79
2024/01/23 00:45:18;;;;;;;7.85;1.52;;;;;;;9.97;85.32;101815.19;4991097;28;20077;-81
2024/01/23 00:47:43;;;;;;;9.90;1.80;;;;;;;9.95;85.44;101811.63;4991225;28;20089;-81
2024/01/23 00:50:09;;;;;;;9.23;1.90;;;;;;;9.94;85.31;101811.63;4991274;28;20062;-81
2024/01/23 00:52:34;;;;;;;6.67;1.40;;;;;;;9.93;85.52;101818.59;4991058;28;20069;-81
2024/01/23 00:55:03;;;;;;;5.25;1.15;;;;;;;9.92;85.33;101827.34;4991280;28;20490;-80
2024/01/23 00:57:28;;;;;;;4.88;0.98;;;;;;;9.91;85.52;101820.31;4991495;28;20026;-81
2024/01/23 00:59:54;;;;;;;7.60;1.20;;;;;;;9.89;85.43;101827.28;4990515;28;20043;-79
2024/01/23 01:02:19;;;;;;;5.77;1.37;;;;;;;9.87;85.29;101823.72;4990917;28;20030;-81
2024/01/23 01:04:46;;;;;;;6.17;1.30;;;;;;;9.86;85.68;101827.22;4973468;28;20445;-81
2024/01/23 01:07:13;;;;;;;6.93;1.20;;;;;;;9.85;85.49;101828.06;4990817;28;20266;-81
2024/01/23 01:09:38;;;;;;;5.22;1.10;;;;;;;9.83;85.29;101829.78;4990810;28;20038;-80
2024/01/23 01:12:04;;;;;;;6.70;2.00;;;;;;;9.82;85.33;101825.38;4990776;28;20415;-79
2024/01/23 01:14:30;;;;;;;7.00;1.67;;;;;;;9.80;85.29;101819.19;4973097;28;20126;-81
2024/01/23 01:16:55;;;;;;;7.07;1.42;;;;;;;9.79;85.49;101820.03;4990854;28;20031;-81
2024/01/23 01:19:20;;;;;;;6.60;1.30;;;;;;;9.76;85.21;101816.44;4990777;28;20027;-81
2024/01/23 01:21:46;;;;;;;7.83;1.27;;;;;;;9.74;85.45;101818.16;4990659;28;20043;-78
2024/01/23 01:24:12;;;;;;;6.90;1.90;;;;;;;9.73;85.04;101824.28;4993400;28;20079;-80
2024/01/23 01:26:40;;;;;;;6.68;1.52;;;;;;;9.71;85.37;101825.09;4992366;28;20030;-80
2024/01/23 01:29:08;;;;;;;7.40;1.45;;;;;;;9.68;85.40;101822.41;4990353;28;20528;-81
2024/01/23 01:31:34;;;;;;;9.23;1.77;;;;;;;9.66;85.05;101827.59;4990457;28;20018;-81
2024/01/23 01:33:59;;;;;;;8.27;1.42;;;;;;;9.63;85.30;101824.91;4990724;28;20367;-80
2024/01/23 01:36:24;;;;;;;8.70;1.27;;;;;;;9.62;85.14;101829.25;4989684;28;20034;-82
2024/01/23 01:38:50;;;;;;;6.67;1.27;;;;;;;9.59;85.16;101831.81;4990384;28;20084;-79
2024/01/23 01:41:15;;;;;;;5.37;1.13;;;;;;;9.58;85.14;101821.28;5003899;28;20375;-82
2024/01/23 01:43:41;;;;;;;6.23;1.10;;;;;;;9.57;85.30;101832.66;4983495;28;20173;-79
2024/01/23 01:46:17;;;;;;;5.60;1.00;;;;;;;9.54;85.18;101837.84;4989942;28;20053;-78
2024/01/23 01:48:43;;;;;;;9.60;1.10;;;;;;;9.54;85.11;101840.47;4990272;28;20029;-78
2024/01/23 01:51:10;;;;;;;7.65;1.33;;;;;;;9.52;85.10;101842.13;4990321;28;20026;-80
2024/01/23 01:53:36;;;;;;;8.38;1.13;;;;;;;9.51;85.27;101840.34;4992599;28;20026;-80
2024/01/23 01:56:03;;;;;;;7.50;1.25;;;;;;;9.48;84.99;101844.69;4990344;28;20129;-81
2024/01/23 01:58:30;;;;;;;8.33;1.00;;;;;;;9.46;85.52;101838.50;4991376;28;20034;-82
2024/01/23 02:00:58;;;;;;;5.95;1.10;;;;;;;9.44;85.40;101842.84;4989950;28;20046;-81
2024/01/23 02:03:24;;;;;;;4.60;0.77;;;;;;;9.43;85.38;101846.31;4989924;28;20097;-81
2024/01/23 02:05:50;;;;;;;6.47;1.20;;;;;;;9.40;85.12;101859.38;4990507;28;20054;-81
2024/01/23 02:08:16;;;;;;;9.75;1.70;;;;;;;9.37;85.47;101859.31;4990353;28;20034;-80
2024/01/23 02:10:43;;;;;;;8.02;1.92;;;;;;;9.34;85.10;101865.38;4989769;28;20495;-80
2024/01/23 02:13:08;;;;;;;8.93;1.95;;;;;;;9.30;85.02;101867.91;4990058;28;20041;-82
2024/01/23 02:15:34;;;;;;;8.27;2.60;;;;;;;9.27;85.34;101865.16;4972504;28;20042;-81
2024/01/23 02:18:00;;;;;;;9.60;2.90;;;;;;;9.24;85.08;101859.81;4990069;28;20174;-81
2024/01/23 02:20:26;;;;;;;12.90;2.70;;;;;;;9.17;85.30;101866.66;4978099;28;20499;-81
2024/01/23 02:22:52;;;;;;;9.95;2.95;;;;;;;9.10;85.21;101865.59;4990014;28;20076;-79
2024/01/23 02:25:18;;;;;;;8.38;2.63;;;;;;;9.06;85.19;101863.75;4997115;28;20030;-80
2024/01/23 02:27:43;;;;;;;7.23;2.60;;;;;;;9.01;85.33;101866.22;4972244;28;20180;-80
2024/01/23 02:30:09;;;;;;;9.25;2.50;;;;;;;9.00;85.33;101853.03;4989885;28;20026;-79
2024/01/23 02:32:35;;;;;;;7.20;2.10;;;;;;;8.99;85.48;101852.16;4989818;28;20031;-80
2024/01/23 02:35:00;;;;;;;6.90;1.98;;;;;;;8.95;85.61;101846.75;4989877;28;20061;-78
2024/01/23 02:37:26;;;;;;;7.70;2.20;;;;;;;8.92;85.35;101851.94;4989796;28;20030;-78
2024/01/23 02:39:51;;;;;;;7.03;1.97;;;;;;;8.89;85.26;101850.09;4974473;28;20398;-80
2024/01/23 02:42:16;;;;;;;8.50;2.50;;;;;;;8.85;85.12;101849.13;5009471;28;20029;-81
2024/01/23 02:44:45;;;;;;;8.25;2.53;;;;;;;8.80;85.27;101848.13;4992175;28;20033;-79
2024/01/23 02:47:13;;;;;;;7.20;2.43;;;;;;;8.77;85.35;101829.63;4991365;28;20475;-79
2024/01/23 02:49:39;;;;;;;9.93;2.80;;;;;;;8.78;85.09;101828.78;4993383;28;20053;-76
2024/01/23 02:52:05;;;;;;;9.77;3.47;;;;;;;8.75;85.30;101826.06;4993324;28;20108;-81
2024/01/23 02:54:33;;;;;;;9.77;3.10;;;;;;;8.71;84.86;101824.19;4993572;28;20113;-81
2024/01/23 02:56:59;;;;;;;9.68;2.67;;;;;;;8.69;84.96;101818.03;4990161;28;20034;-81
2024/01/23 02:59:25;;;;;;;8.48;2.25;;;;;;;8.67;85.03;101817.97;4993010;28;20096;-80
2024/01/23 03:01:50;;;;;;;8.13;1.77;;;;;;;8.70;84.98;101823.31;4975653;28;20045;-79
2024/01/23 03:04:16;;;;;;;9.50;2.03;;;;;;;8.69;84.85;101826.81;4993005;28;20030;-81
2024/01/23 03:06:41;;;;;;;7.43;1.80;;;;;;;8.69;84.81;101821.56;4993503;28;20031;-80
2024/01/23 03:09:10;;;;;;;6.45;1.50;;;;;;;8.68;84.95;101817.16;4993006;28;20026;-80
2024/01/23 03:11:38;;;;;;;7.17;1.90;;;;;;;8.70;84.68;101814.53;4993028;28;20030;-81
2024/01/23 03:14:04;;;;;;;6.15;1.60;;;;;;;8.68;84.75;101818.88;4992933;28;20042;-82
2024/01/23 03:16:29;;;;;;;7.13;1.87;;;;;;;8.69;84.44;101820.66;4992876;28;20053;-81
2024/01/23 03:18:55;;;;;;;6.43;1.67;;;;;;;8.68;84.47;101824.13;4992644;28;20069;-81
2024/01/23 03:21:20;;;;;;;6.93;1.47;;;;;;;8.66;84.73;101815.31;4993053;28;20033;-81
2024/01/23 03:23:46;;;;;;;9.27;1.80;;;;;;;8.63;84.53;101815.22;4992697;28;20034;-80
2024/01/23 03:26:11;;;;;;;6.00;1.60;;;;;;;8.60;84.54;101816.91;5001845;28;20031;-80
2024/01/23 03:28:36;;;;;;;7.20;1.70;;;;;;;8.55;84.49;101812.38;4992784;28;20077;-81
2024/01/23 03:31:03;;;;;;;8.53;1.53;;;;;;;8.52;84.60;101807.91;4993048;28;20364;-81
2024/01/23 03:33:29;;;;;;;6.03;1.50;;;;;;;8.49;84.51;101815.66;4993210;28;20022;-81
2024/01/23 03:35:54;;;;;;;6.20;1.60;;;;;;;8.47;84.50;101804.22;4992792;28;20026;-80
2024/01/23 03:38:19;;;;;;;6.63;1.40;;;;;;;8.45;84.37;101812.06;4992842;28;20097;-81
2024/01/23 03:40:45;;;;;;;4.70;1.30;;;;;;;8.45;84.36;101813.78;4984450;28;20105;-80
2024/01/23 03:43:11;;;;;;;4.65;1.42;;;;;;;8.43;84.58;101802.34;5007462;28;20049;-81
2024/01/23 03:45:36;;;;;;;4.43;1.40;;;;;;;8.44;84.23;101806.75;4992430;28;20030;-81
2024/01/23 03:48:03;;;;;;;6.13;1.60;;;;;;;8.41;84.05;101810.19;4992246;28;20525;-80
2024/01/23 03:50:29;;;;;;;4.87;1.53;;;;;;;8.41;84.06;101810.19;4992512;28;20030;-82
2024/01/23 03:52:55;;;;;;;6.25;1.63;;;;;;;8.41;84.08;101810.19;4992351;28;20034;-81
2024/01/23 03:55:21;;;;;;;6.35;1.60;;;;;;;8.42;84.27;101816.34;4992518;28;20058;-81
2024/01/23 03:57:47;;;;;;;6.18;1.63;;;;;;;8.42;84.04;101821.59;4991773;28;20027;-79
2024/01/23 04:00:14;;;;;;;7.13;2.17;;;;;;;8.41;83.96;101818.06;4991811;28;20061;-81
2024/01/23 04:02:39;;;;;;;6.67;2.47;;;;;;;8.42;83.92;101817.19;4992580;28;20129;-79
2024/01/23 04:05:06;;;;;;;7.30;1.80;;;;;;;8.42;83.85;101816.34;4992081;28;20145;-81
2024/01/23 04:07:33;;;;;;;7.03;2.20;;;;;;;8.44;83.63;101817.25;4974460;28;20041;-80
2024/01/23 04:09:59;;;;;;;8.23;2.30;;;;;;;8.43;83.68;101820.75;4992332;28;20022;-80
2024/01/23 04:12:25;;;;;;;7.37;2.50;;;;;;;8.44;83.80;101819.88;4991721;28;20041;-80
2024/01/23 04:14:50;;;;;;;9.85;2.58;;;;;;;8.42;83.54;101816.34;4991640;28;20034;-80
2024/01/23 04:17:16;;;;;;;7.53;2.30;;;;;;;8.41;83.53;101817.19;4991980;28;20031;-80
2024/01/23 04:19:42;;;;;;;9.48;3.30;;;;;;;8.40;83.57;101802.28;4991929;28;20034;-81
2024/01/23 04:22:07;;;;;;;8.30;3.80;;;;;;;8.39;83.62;101804.00;4991996;28;20032;-81
2024/01/23 04:24:40;;;;;;;14.23;4.93;;;;;;;8.38;83.74;101803.97;4997714;28;20135;-81
2024/01/23 04:27:06;;;;;;;12.30;4.85;;;;;;;8.37;83.38;101803.06;4993466;28;20030;-80
2024/01/23 04:29:31;;;;;;;14.73;5.05;;;;;;;8.38;83.66;101798.72;4991980;28;20038;-81
2024/01/23 04:31:57;;;;;;;11.17;4.30;;;;;;;8.35;83.66;101796.00;4991652;28;20034;-81
2024/01/23 04:34:22;;;;;;;11.27;4.23;;;;;;;8.34;83.49;101787.22;4991814;28;20030;-81
2024/01/23 04:36:48;;;;;;;10.90;4.60;;;;;;;8.32;83.61;101794.16;4991730;28;20373;-81
2024/01/23 04:39:14;;;;;;;9.40;3.97;;;;;;;8.29;83.61;101789.69;4991831;28;20268;-81
2024/01/23 04:41:40;;;;;;;9.57;4.22;;;;;;;8.27;83.43;101796.63;5008433;28;20030;-80
2024/01/23 04:44:05;;;;;;;10.87;4.50;;;;;;;8.26;83.65;101810.59;4998817;28;20549;-80
2024/01/23 04:46:31;;;;;;;8.75;4.47;;;;;;;8.24;83.67;101807.06;4991376;28;20109;-81
2024/01/23 04:48:56;;;;;;;11.27;5.03;;;;;;;8.20;83.61;101810.44;4991593;28;20077;-80
2024/01/23 04:51:21;;;;;;;11.80;4.67;;;;;;;8.15;83.82;101812.91;4991294;28;20034;-82
2024/01/23 04:53:51;;;;;;;11.67;4.53;;;;;;;8.11;83.52;101815.41;4991396;28;20033;-81
2024/01/23 04:56:17;;;;;;;14.50;5.93;;;;;;;8.07;83.54;101811.78;4991580;28;20265;-82
2024/01/23 04:58:42;;;;;;;10.82;4.47;;;;;;;8.02;83.75;101816.88;4991274;28;20376;-82
2024/01/23 05:01:08;;;;;;;11.07;4.60;;;;;;;8.01;83.70;101816.84;4990800;28;20046;-81
2024/01/23 05:03:33;;;;;;;10.40;4.60;;;;;;;8.00;83.35;101808.06;4991314;28;20038;-81
2024/01/23 05:05:59;;;;;;;15.48;5.30;;;;;;;7.99;83.88;101806.28;4990887;28;20034;-81
2024/01/23 05:08:24;;;;;;;12.37;4.90;;;;;;;7.97;83.57;101804.47;4990825;28;20030;-80
2024/01/23 05:10:50;;;;;;;11.18;4.20;;;;;;;7.92;83.55;101799.06;4990447;28;20030;-78
2024/01/23 05:13:15;;;;;;;13.23;5.20;;;;;;;7.92;83.57;101793.84;4990962;28;20077;-78
2024/01/23 05:15:41;;;;;;;12.97;5.07;;;;;;;7.89;83.70;101793.75;4973511;28;20026;-82
2024/01/23 05:18:07;;;;;;;14.23;8.20;;;;;;;7.87;83.54;101796.31;4991041;28;20458;-81
2024/01/23 05:20:34;;;;;;;14.48;7.10;;;;;;;7.85;83.41;101786.63;4991114;28;20478;-80
2024/01/23 05:23:01;;;;;;;13.90;6.18;;;;;;;7.80;83.54;101788.19;4990689;28;20030;-77
2024/01/23 05:25:26;;;;;;;11.90;5.05;;;;;;;7.75;83.33;101790.69;4999548;28;20033;-79
2024/01/23 05:27:52;;;;;;;16.77;6.13;;;;;;;7.74;83.80;101791.53;4973226;28;20027;-82
2024/01/23 05:30:17;;;;;;;18.45;6.88;;;;;;;7.73;83.83;101808.09;4990481;28;20042;-81
2024/01/23 05:32:44;;;;;;;21.30;8.00;;;;;;;7.71;83.28;101815.91;4990871;28;20030;-82
2024/01/23 05:35:09;;;;;;;28.55;8.82;;;;;;;7.70;83.58;101824.59;4990831;28;20141;-81
2024/01/23 05:37:35;;;;;;;37.50;8.83;;;;;;;7.68;83.52;101835.88;4990939;28;20562;-80
2024/01/23 05:40:00;;;;;;;26.80;7.82;;;;;;;7.66;83.54;101838.47;4993961;28;20026;-81
2024/01/23 05:42:25;;;;;;;25.77;8.17;;;;;;;7.63;83.33;101848.84;5010258;28;20025;-81
2024/01/23 05:44:51;;;;;;;25.20;7.67;;;;;;;7.60;83.46;101854.88;4991558;28;20026;-82
2024/01/23 05:47:16;;;;;;;27.93;8.67;;;;;;;7.59;83.81;101852.19;4990744;28;20495;-81
2024/01/23 05:49:42;;;;;;;23.43;8.73;;;;;;;7.55;83.50;101852.91;4990448;28;20033;-80
2024/01/23 05:52:08;;;;;;;22.95;7.53;;;;;;;7.47;83.16;101848.31;4990510;28;20049;-79
2024/01/23 05:54:33;;;;;;;21.47;7.50;;;;;;;7.44;83.68;101847.31;4990780;28;20457;-80
2024/01/23 05:56:59;;;;;;;22.63;6.95;;;;;;;7.39;83.08;101836.69;4990395;28;20023;-80
2024/01/23 05:59:24;;;;;;;19.03;6.87;;;;;;;7.32;82.92;101832.06;4990504;28;20034;-81
2024/01/23 06:01:50;;;;;;;21.65;8.63;;;;;;;7.26;83.52;101831.84;4990795;28;20483;-78
2024/01/23 06:04:15;;;;;;;23.93;7.87;;;;;;;7.24;83.63;101828.28;4990272;28;20027;-78
2024/01/23 06:06:42;;;;;;;20.00;7.37;;;;;;;7.24;83.41;101838.75;4990244;28;20026;-80
2024/01/23 06:09:10;;;;;;;21.00;7.47;;;;;;;7.24;83.38;101846.63;4990029;28;20098;-80
2024/01/23 06:11:38;;;;;;;30.08;9.48;;;;;;;7.22;83.69;101846.56;4990054;28;20105;-81
2024/01/23 06:14:04;;;;;;;23.63;9.13;;;;;;;7.22;83.51;101856.16;4990037;28;20505;-79
2024/01/23 06:16:29;;;;;;;28.05;9.98;;;;;;;7.20;83.40;101847.34;4990218;28;20022;-80
2024/01/23 06:18:55;;;;;;;25.37;9.70;;;;;;;7.18;83.45;101871.78;4990252;28;20125;-76
2024/01/23 06:21:20;;;;;;;27.07;9.73;;;;;;;7.15;83.03;101882.16;4990769;28;20108;-78
2024/01/23 06:23:46;;;;;;;30.13;9.77;;;;;;;7.14;83.54;101884.69;4993916;28;20277;-80
2024/01/23 06:26:11;;;;;;;21.47;8.80;;;;;;;7.13;83.24;101888.16;4993998;28;20085;-79
2024/01/23 06:28:36;;;;;;;21.47;7.90;;;;;;;7.10;83.88;101896.78;4993926;28;20018;-77
2024/01/23 06:31:02;;;;;;;17.27;7.90;;;;;;;7.08;83.32;101911.56;4993745;28;20406;-79
2024/01/23 06:33:27;;;;;;;14.80;6.80;;;;;;;7.06;83.27;101908.00;4994110;28;20038;-80
2024/01/23 06:35:53;;;;;;;20.80;7.03;;;;;;;7.00;83.04;101913.00;4994125;28;20479;-80
2024/01/23 06:38:20;;;;;;;17.58;6.57;;;;;;;6.97;82.89;101921.63;4993998;28;20038;-80
2024/01/23 06:40:45;;;;;;;21.20;7.47;;;;;;;6.95;83.05;101925.94;4976066;28;20093;-81
2024/01/23 06:43:11;;;;;;;17.93;6.93;;;;;;;6.89;83.42;101921.38;4998243;28;20490;-77
2024/01/23 06:45:36;;;;;;;22.30;9.50;;;;;;;6.86;83.53;101929.09;5010103;28;20112;-76
2024/01/23 06:48:02;;;;;;;19.52;7.72;;;;;;;6.87;83.43;101941.38;4991790;28;20182;-79
2024/01/23 06:50:29;;;;;;;21.20;8.40;;;;;;;6.87;83.12;101944.00;4993474;28;20491;-77
2024/01/23 06:52:54;;;;;;;22.17;8.77;;;;;;;6.91;82.81;101944.09;4993518;28;20037;-80
2024/01/23 06:55:20;;;;;;;18.27;8.00;;;;;;;6.91;82.83;101958.06;4992468;28;20038;-77
2024/01/23 06:57:45;;;;;;;17.38;8.35;;;;;;;6.93;82.64;101948.56;4993450;28;20037;-77
2024/01/23 07:00:11;;;;;;;16.27;7.63;;;;;;;6.95;82.98;101953.84;4993179;28;20493;-80
2024/01/23 07:02:37;;;;;;;18.10;8.05;;;;;;;6.99;82.64;101953.13;4992204;28;20033;-77
2024/01/23 07:05:03;;;;;;;17.73;7.80;;;;;;;7.03;83.02;101949.78;4993119;28;20030;-77
2024/01/23 07:07:28;;;;;;;17.40;7.60;;;;;;;7.06;83.34;101947.28;4993343;28;20072;-78
2024/01/23 07:09:54;;;;;;;17.23;7.90;;;;;;;7.09;82.90;101950.00;4993042;28;20069;-76
2024/01/23 07:12:19;;;;;;;16.47;7.80;;;;;;;7.12;82.75;101954.50;4975277;28;20027;-81
2024/01/23 07:14:45;;;;;;;16.27;8.03;;;;;;;7.15;82.98;101960.75;4975827;28;20033;-76
2024/01/23 07:17:11;;;;;;;15.20;7.35;;;;;;;7.18;83.04;101979.19;4993317;28;20105;-78
2024/01/23 07:19:37;;;;;;;15.10;7.10;;;;;;;7.23;83.09;101981.97;4984242;28;20094;-78
2024/01/23 07:22:03;;;;;;;18.60;8.00;;;;;;;7.27;82.86;101985.59;4973762;28;20034;-78
2024/01/23 07:24:28;;;;;;;17.67;8.60;;;;;;;7.30;82.60;101984.00;4985905;28;20030;-79
2024/01/23 07:26:53;;;;;;;18.80;8.53;;;;;;;7.33;82.41;101985.84;4996445;28;20138;-80
2024/01/23 07:29:19;;;;;;;17.13;8.07;;;;;;;7.34;82.72;101990.22;4992806;28;20430;-80
2024/01/23 07:31:44;;;;;;;17.33;8.13;;;;;;;7.35;82.53;101994.63;4975431;28;20067;-81
2024/01/23 07:34:09;;;;;;;16.87;8.77;;;;;;;7.37;82.44;101998.25;4992767;28;20662;-80
2024/01/23 07:36:35;;;;;;;19.13;8.73;;;;;;;7.37;82.75;101993.00;4992742;28;20038;-75
2024/01/23 07:39:01;;;;;;;20.17;8.48;;;;;;;7.37;83.38;101998.25;4990973;28;20513;-81
2024/01/23 07:41:27;;;;;;;19.77;8.63;;;;;;;7.40;83.07;101995.72;5007848;28;20040;-81
2024/01/23 07:43:52;;;;;;;22.30;8.63;;;;;;;7.42;83.59;102001.91;5001883;28;20781;-80
2024/01/23 07:46:20;;;;;;;16.53;7.27;;;;;;;7.48;83.10;101998.63;4992350;28;20097;-77
2024/01/23 07:48:45;;;;;;;17.43;7.80;;;;;;;7.55;83.46;101986.63;4992368;28;20292;-77
2024/01/23 07:51:11;;;;;;;15.57;7.33;;;;;;;7.60;83.24;101996.44;4992312;28;20026;-76
2024/01/23 07:53:36;;;;;;;18.37;7.60;;;;;;;7.65;83.55;101988.75;4992431;28;20360;-79
2024/01/23 07:56:01;;;;;;;18.70;7.70;;;;;;;7.68;83.26;101988.88;4992490;28;20534;-77
2024/01/23 07:58:27;;;;;;;16.53;7.30;;;;;;;7.72;83.13;101990.75;4992071;28;20031;-77
2024/01/23 08:00:52;;;;;;;19.33;7.90;;;;;;;7.78;83.55;101989.19;4991947;28;20051;-80
2024/01/23 08:03:17;;;;;;;17.00;7.43;;;;;;;7.82;83.01;101991.97;4992116;28;20109;-81
2024/01/23 08:05:43;;;;;;;20.87;8.17;;;;;;;7.86;82.89;102006.09;4992369;28;20266;-76
2024/01/23 08:08:08;;;;;;;18.17;8.17;;;;;;;7.90;83.16;102015.84;4991946;28;20033;-77
2024/01/23 08:10:34;;;;;;;23.13;9.50;;;;;;;7.93;82.79;102018.59;4974340;28;20034;-76
2024/01/23 08:13:00;;;;;;;22.88;11.13;;;;;;;7.96;83.20;102016.06;4992083;28;20088;-80
2024/01/23 08:15:25;;;;;;;23.77;11.27;;;;;;;7.99;82.93;102021.41;4992083;28;20023;-79
2024/01/23 08:17:50;;;;;;;21.80;11.73;;;;;;;8.01;83.18;102019.72;4992179;28;20026;-79
2024/01/23 08:20:16;;;;;;;22.48;10.85;;;;;;;8.03;83.24;102010.19;4990601;28;20057;-79
2024/01/23 08:22:41;;;;;;;28.10;12.70;;;;;;;8.04;83.63;102008.47;4992035;28;20038;-77
2024/01/23 08:25:08;;;;;;;25.93;11.03;;;;;;;8.04;83.64;102009.34;5000520;28;20029;-78
2024/01/23 08:27:33;;;;;;;23.38;10.93;;;;;;;8.07;83.94;102018.16;4991683;28;20601;-81
2024/01/23 08:29:59;;;;;;;18.83;8.73;;;;;;;8.11;83.96;102022.69;4991522;28;20114;-80
2024/01/23 08:32:25;;;;;;;19.53;9.03;;;;;;;8.16;84.03;102034.22;4991733;28;20019;-78
2024/01/23 08:34:50;;;;;;;18.45;9.20;;;;;;;8.22;83.83;102023.06;4991688;28;20033;-82
2024/01/23 08:37:16;;;;;;;20.23;9.07;;;;;;;8.26;83.79;102017.94;4991677;28;20027;-81
2024/01/23 08:39:42;;;;;;;22.57;9.87;;;;;;;8.29;83.75;102025.91;4974868;28;20841;-76
2024/01/23 08:42:07;;;;;;;36.05;15.13;;;;;;;8.36;84.22;102031.41;5011285;28;20018;-80
2024/01/23 08:44:33;;;;;;;38.30;14.63;;;;;;;8.39;84.18;102032.38;4994656;28;20069;-80
2024/01/23 08:46:58;;;;;;;27.33;11.93;;;;;;;8.43;84.51;102038.63;4973854;28;20034;-78
2024/01/23 08:49:24;;;;;;;29.50;12.23;;;;;;;8.45;85.01;102042.19;4991188;28;20509;-79
2024/01/23 08:51:49;;;;;;;22.30;9.88;;;;;;;8.48;84.92;102034.41;4991812;28;20090;-82
2024/01/23 08:54:19;;;;;;;23.00;9.03;;;;;;;8.51;84.55;102041.56;4991235;28;20172;-79
2024/01/23 08:56:46;;;;;;;24.55;9.40;;;;;;;8.54;84.60;102029.41;4975239;28;20145;-82
2024/01/23 08:59:11;;;;;;;23.30;9.10;;;;;;;8.56;84.75;102027.75;4991358;28;20031;-75
2024/01/23 09:01:37;;;;;;;23.05;9.27;;;;;;;8.61;84.78;102026.16;4991309;28;20098;-82
2024/01/23 09:04:02;;;;;;;23.20;10.83;;;;;;;8.63;85.01;102020.06;4991114;28;20049;-81
2024/01/23 09:06:28;;;;;;;33.20;12.97;;;;;;;8.67;85.29;102021.94;4991104;28;20023;-79
2024/01/23 09:08:53;;;;;;;36.70;15.33;;;;;;;8.69;85.90;102017.63;4991273;28;20037;-82
2024/01/23 09:11:18;;;;;;;33.03;14.17;;;;;;;8.71;86.41;102018.56;4990922;28;20280;-79
2024/01/23 09:13:44;;;;;;;36.73;15.40;;;;;;;8.71;87.30;102015.94;4990911;28;20069;-79
2024/01/23 09:16:09;;;;;;;30.87;13.43;;;;;;;8.73;86.67;102001.09;4990867;28;20018;-79
2024/01/23 09:18:35;;;;;;;36.80;14.13;;;;;;;8.75;87.07;102002.03;4990987;28;20438;-77
2024/01/23 09:21:02;;;;;;;34.20;13.27;;;;;;;8.80;87.40;102008.38;4990883;28;20045;-83
2024/01/23 09:23:29;;;;;;;37.92;14.85;;;;;;;8.84;87.50;102010.25;4990762;28;20098;-78
2024/01/23 09:25:55;;;;;;;39.40;15.70;;;;;;;8.90;88.01;102020.03;4999562;28;20100;-83
2024/01/23 09:28:20;;;;;;;45.08;15.27;;;;;;;8.96;87.12;102016.69;4990574;28;20498;-77
2024/01/23 09:30:46;;;;;;;31.33;15.03;;;;;;;9.01;87.72;102022.97;4990647;28;20065;-80
2024/01/23 09:33:11;;;;;;;28.63;12.43;;;;;;;9.08;87.18;102040.75;4990608;28;20022;-76
2024/01/23 09:35:36;;;;;;;28.50;12.07;;;;;;;9.13;87.05;102039.13;4990808;28;20541;-80
2024/01/23 09:38:03;;;;;;;32.17;10.27;;;;;;;9.22;86.96;102042.88;4990627;28;20081;-80
2024/01/23 09:40:29;;;;;;;23.30;8.40;;;;;;;9.27;86.60;102042.19;4980134;28;20021;-76
2024/01/23 09:42:56;;;;;;;26.10;8.50;;;;;;;9.34;86.93;102038.00;5007802;28;20509;-80
2024/01/23 09:45:27;;;;;;;22.20;7.47;;;;;;;9.39;86.72;102046.00;4990518;28;20066;-81
2024/01/23 09:47:52;;;;;;;29.48;8.82;;;;;;;9.46;86.90;102038.34;4990382;28;20034;-79
2024/01/23 09:50:18;;;;;;;23.13;7.70;;;;;;;9.53;86.78;102044.69;4990228;28;20029;-78
2024/01/23 09:52:48;;;;;;;22.48;7.95;;;;;;;9.59;87.08;102039.59;4990218;28;20486;-81
2024/01/23 09:55:13;;;;;;;25.00;7.60;;;;;;;9.65;87.15;102044.16;4990467;28;20398;-81
2024/01/23 09:57:39;;;;;;;22.73;7.13;;;;;;;9.70;86.84;102037.28;4989927;28;20114;-82
2024/01/23 10:00:11;;;;;;;25.63;8.20;;;;;;;9.75;86.97;102035.66;4990078;28;20073;-81
2024/01/23 10:02:40;;;;;;;18.15;6.03;;;;;;;9.82;86.75;102046.38;4990243;28;20046;-78
2024/01/23 10:05:15;;;;;;;24.42;5.97;;;;;;;9.90;86.41;102042.22;4988803;28;20424;-79
2024/01/23 10:07:42;;;;;;;19.65;5.07;;;;;;;9.98;86.46;102040.66;4990237;28;20517;-80
2024/01/23 10:10:16;;;;;;;14.43;4.68;;;;;;;10.09;86.54;102053.25;4989993;28;20069;-77
2024/01/23 10:12:48;;;;;;;19.63;6.30;;;;;;;10.15;86.39;102050.75;4972718;28;20105;-82
2024/01/23 10:15:21;;;;;;;18.70;5.57;;;;;;;10.21;85.91;102050.91;4990142;28;20459;-76
2024/01/23 10:17:47;;;;;;;15.20;4.85;;;;;;;10.29;86.16;102054.66;4990177;28;20171;-81
2024/01/23 10:20:13;;;;;;;17.83;5.95;;;;;;;10.33;85.83;102061.78;4990202;28;20467;-79
2024/01/23 10:22:38;;;;;;;24.75;9.90;;;;;;;10.38;85.91;102053.09;4990169;28;20095;-76
2024/01/23 10:25:14;;;;;;;16.53;6.27;;;;;;;10.41;86.02;102066.38;4999010;28;20101;-81
2024/01/23 10:27:39;;;;;;;17.05;5.93;;;;;;;10.43;85.79;102062.03;4990077;28;20088;-78
2024/01/23 10:30:05;;;;;;;16.87;5.70;;;;;;;10.45;86.34;102074.41;4989840;28;20066;-81
2024/01/23 10:32:31;;;;;;;16.58;5.68;;;;;;;10.49;86.06;102075.41;4989926;28;20038;-76
2024/01/23 10:34:57;;;;;;;14.68;5.05;;;;;;;10.54;86.01;102075.50;4990119;28;20141;-81
2024/01/23 10:37:22;;;;;;;15.40;4.77;;;;;;;10.59;85.75;102080.03;4990185;28;20162;-80
2024/01/23 10:39:49;;;;;;;15.70;5.00;;;;;;;10.62;85.34;102081.88;4991754;28;20255;-81
2024/01/23 10:42:16;;;;;;;14.93;4.22;;;;;;;10.68;85.92;102078.47;5009702;28;20072;-79
2024/01/23 10:44:42;;;;;;;11.10;3.80;;;;;;;10.74;85.36;102073.38;4992396;28;20514;-82
2024/01/23 10:47:08;;;;;;;10.73;4.10;;;;;;;10.82;85.63;102063.91;4989670;28;20054;-79
2024/01/23 10:49:33;;;;;;;13.20;4.15;;;;;;;10.88;85.25;102049.97;4989843;28;20058;-80
2024/01/23 10:52:03;;;;;;;12.57;4.73;;;;;;;10.94;85.45;102049.22;4989807;28;20026;-77
2024/01/23 10:54:31;;;;;;;14.10;4.40;;;;;;;11.00;85.36;102054.66;4972425;28;20209;-79
2024/01/23 10:56:58;;;;;;;10.98;4.13;;;;;;;11.04;84.77;102054.72;4989976;28;20387;-81
2024/01/23 10:59:29;;;;;;;12.18;3.90;;;;;;;11.12;84.57;102049.63;4989599;28;20229;-82
2024/01/23 11:02:05;;;;;;;11.90;3.67;;;;;;;11.19;84.63;102064.72;4990076;28;20062;-78
2024/01/23 11:04:31;;;;;;;9.80;3.50;;;;;;;11.22;84.65;102056.00;4985192;28;20046;-81
2024/01/23 11:07:20;;;;;;;10.23;3.42;;;;;;;11.23;84.51;102056.91;4989635;28;20030;-82
2024/01/23 11:10:09;;;;;;;9.55;3.10;;;;;;;11.20;84.18;102058.59;4975639;28;20034;-82
2024/01/23 11:12:44;;;;;;;7.47;2.70;;;;;;;11.22;84.67;102044.59;4993032;28;20559;-79
2024/01/23 11:15:15;;;;;;;6.70;2.90;;;;;;;11.21;84.31;102038.41;4993466;28;20026;-80
2024/01/23 11:17:41;;;;;;;10.00;2.55;;;;;;;11.22;84.57;102040.19;4993378;28;20483;-77
2024/01/23 11:20:13;;;;;;;6.77;2.40;;;;;;;11.27;84.38;102028.00;4992975;28;20064;-76
2024/01/23 11:22:39;;;;;;;9.48;2.30;;;;;;;11.28;84.23;102023.63;4993123;28;20022;-81